White Bear Township, Minnesota
Current Conditions -  °F | °C
As of 11:11 AM on Thursday 23 Oct 2014 (Local Time) from K21D Reporting Station
Overcast Overcast  
Wind Chill: 12°   Ceiling: 500
Heat Index: 12°   Visibility: 7mi
Dew Point: 11°   Wind: 6mph
Humidity: 94%   Direction: 190°S
Pressure: 30.02"   Gusts: NA
Location:  45.0958°N, 93.0043°W
Report Text: K21D 231611Z AUTO 19005KT 7SM OVC005 12/11 A3002 RMK AO2
Loading
Personal Weather Stations






























Interactive Weather Map
Tropical Storm Tracking
New forecast layout! Learn more

10-Day Weather Forecast

Advertisements
Track Severe Weather on mobile